This is the latest recevied weather packets stored in our database for station/object BMCB-12. If no packets are shown the sender has not sent any weather packets the latest 10 day(s).
| Time | Temp. | Humidity | Pressure | Rain* | Wind** | Luminosity | Snow |
|---|---|---|---|---|---|---|---|
| 1777653595 | 24.44° C | 22% | 1021.8 hPa | 0 mm | - | 34 W/m² | - |
| 1777649394 | 25° C | 21% | 1022 hPa | 0 mm | - | 44 W/m² | - |
| 1777645793 | 25° C | 21% | 1022.5 hPa | 0 mm | - | 672 W/m² | - |
| 1777645193 | 25° C | 20% | 1022.6 hPa | 0 mm | - | 692 W/m² | - |
| 1777643394 | 25° C | 21% | 1022.9 hPa | 0 mm | - | 742 W/m² | - |
| 1777642793 | 24.44° C | 21% | 1022.9 hPa | 0 mm | - | 756 W/m² | - |
| 1777633793 | 21.67° C | 28% | 1024.3 hPa | 0 mm | - | 776 W/m² | - |
| 1777631393 | 20.56° C | 30% | 1024.6 hPa | 0 mm | - | 726 W/m² | - |
| 1777630793 | 20.56° C | 29% | 1024.7 hPa | 0 mm | - | 712 W/m² | - |
| 1777628993 | 20° C | 31% | 1025 hPa | 0 mm | - | 658 W/m² | - |
| 1777628393 | 18.89° C | 29% | 1025 hPa | 0 mm | - | 638 W/m² | - |
| 1777623593 | 16.67° C | 32% | 1025.2 hPa | 0 mm | - | 450 W/m² | - |
| 1777618794 | 13.89° C | 38% | 1025.1 hPa | 0 mm | - | 238 W/m² | - |
| 1777616393 | 11.67° C | 43% | 1025.1 hPa | 0 mm | - | 138 W/m² | - |
| 1777615794 | 10.56° C | 43% | 1025.1 hPa | 0 mm | - | 82 W/m² | - |
| 1777613394 | 9.44° C | 46% | 1024.9 hPa | 0 mm | - | 34 W/m² | - |
| 1777610393 | 8.33° C | 47% | 1024.9 hPa | 0 mm | - | 6 W/m² | - |
| 1777604994 | 8.89° C | 48% | 1024.9 hPa | 0 mm | - | 0 W/m² | - |
| 1777598394 | 10° C | 42% | 1025.3 hPa | 0 mm | - | 0 W/m² | - |
| 1777489198 | 16.67° C | 35% | 1024.1 hPa | 0 mm | - | 2 W/m² | - |
| 1777480799 | 19.44° C | 29% | 1023.4 hPa | 0 mm | - | 34 W/m² | - |
| 1777477798 | 19.44° C | 28% | 1023.4 hPa | 0 mm | - | 42 W/m² | - |
| 1777475397 | 19.44° C | 28% | 1023.6 hPa | 0 mm | - | 554 W/m² | - |
| 1777474199 | 19.44° C | 30% | 1023.7 hPa | 0 mm | - | 612 W/m² | - |
| 1777473598 | 19.44° C | 30% | 1023.7 hPa | 0 mm | - | 634 W/m² | - |
* Rain latest hour (hover to see other rain measurements)
** Current wind speed in m/s (hover to see current wind gust speed)